sensor_id;sensor_type;location;lat;lon;timestamp;P1;durP1;ratioP1;P2;durP2;ratioP2
65831;SDS011;52593;42.648;23.332;2022-12-07T00:02:14;55.20;;;21.50;;
65831;SDS011;52593;42.648;23.332;2022-12-07T00:04:39;56.33;;;20.97;;
65831;SDS011;52593;42.648;23.332;2022-12-07T00:07:05;54.23;;;21.37;;
65831;SDS011;52593;42.648;23.332;2022-12-07T00:09:30;57.30;;;21.73;;
65831;SDS011;52593;42.648;23.332;2022-12-07T00:11:55;59.03;;;22.10;;
65831;SDS011;52593;42.648;23.332;2022-12-07T00:14:21;47.83;;;20.45;;
65831;SDS011;52593;42.648;23.332;2022-12-07T00:16:48;58.70;;;22.00;;
65831;SDS011;52593;42.648;23.332;2022-12-07T00:19:15;51.08;;;22.55;;
65831;SDS011;52593;42.648;23.332;2022-12-07T00:21:41;54.07;;;22.53;;
65831;SDS011;52593;42.648;23.332;2022-12-07T00:24:07;53.70;;;20.95;;
65831;SDS011;52593;42.648;23.332;2022-12-07T00:26:34;55.10;;;20.47;;
65831;SDS011;52593;42.648;23.332;2022-12-07T00:29:34;61.30;;;20.13;;
65831;SDS011;52593;42.648;23.332;2022-12-07T00:31:53;51.55;;;20.67;;
65831;SDS011;52593;42.648;23.332;2022-12-07T00:34:19;47.80;;;19.67;;
65831;SDS011;52593;42.648;23.332;2022-12-07T00:36:45;54.67;;;20.73;;
65831;SDS011;52593;42.648;23.332;2022-12-07T00:39:11;49.67;;;20.30;;
65831;SDS011;52593;42.648;23.332;2022-12-07T00:41:36;48.33;;;20.00;;
65831;SDS011;52593;42.648;23.332;2022-12-07T00:44:02;51.97;;;19.73;;
65831;SDS011;52593;42.648;23.332;2022-12-07T00:46:27;52.83;;;19.53;;
65831;SDS011;52593;42.648;23.332;2022-12-07T00:48:53;54.83;;;21.77;;
65831;SDS011;52593;42.648;23.332;2022-12-07T00:51:20;56.77;;;21.50;;
65831;SDS011;52593;42.648;23.332;2022-12-07T00:53:49;52.42;;;22.65;;
65831;SDS011;52593;42.648;23.332;2022-12-07T00:56:16;48.50;;;20.77;;
65831;SDS011;52593;42.648;23.332;2022-12-07T00:58:43;55.47;;;20.45;;
65831;SDS011;52593;42.648;23.332;2022-12-07T01:01:14;54.72;;;21.08;;
65831;SDS011;52593;42.648;23.332;2022-12-07T01:03:39;58.40;;;20.47;;
65831;SDS011;52593;42.648;23.332;2022-12-07T01:06:04;53.47;;;19.87;;
65831;SDS011;52593;42.648;23.332;2022-12-07T01:08:30;54.20;;;20.20;;
65831;SDS011;52593;42.648;23.332;2022-12-07T01:10:59;50.70;;;20.30;;
65831;SDS011;52593;42.648;23.332;2022-12-07T01:13:26;49.20;;;20.40;;
65831;SDS011;52593;42.648;23.332;2022-12-07T01:15:55;52.42;;;20.35;;
65831;SDS011;52593;42.648;23.332;2022-12-07T01:18:23;52.70;;;20.23;;
65831;SDS011;52593;42.648;23.332;2022-12-07T01:21:02;53.28;;;20.05;;
65831;SDS011;52593;42.648;23.332;2022-12-07T01:23:30;52.03;;;19.30;;
65831;SDS011;52593;42.648;23.332;2022-12-07T01:25:57;50.83;;;20.70;;
65831;SDS011;52593;42.648;23.332;2022-12-07T01:28:24;49.13;;;20.00;;
65831;SDS011;52593;42.648;23.332;2022-12-07T01:30:54;55.13;;;20.35;;
65831;SDS011;52593;42.648;23.332;2022-12-07T01:33:21;50.28;;;19.85;;
65831;SDS011;52593;42.648;23.332;2022-12-07T01:35:46;54.93;;;20.87;;
65831;SDS011;52593;42.648;23.332;2022-12-07T01:38:12;52.80;;;20.37;;
65831;SDS011;52593;42.648;23.332;2022-12-07T01:40:37;53.50;;;20.60;;
65831;SDS011;52593;42.648;23.332;2022-12-07T01:43:04;46.97;;;19.70;;
65831;SDS011;52593;42.648;23.332;2022-12-07T01:45:40;58.30;;;21.40;;
65831;SDS011;52593;42.648;23.332;2022-12-07T01:48:06;52.13;;;19.77;;
65831;SDS011;52593;42.648;23.332;2022-12-07T01:50:34;53.65;;;19.80;;
65831;SDS011;52593;42.648;23.332;2022-12-07T01:53:02;47.90;;;19.23;;
65831;SDS011;52593;42.648;23.332;2022-12-07T01:55:29;49.60;;;19.33;;
65831;SDS011;52593;42.648;23.332;2022-12-07T01:57:55;49.15;;;20.02;;
65831;SDS011;52593;42.648;23.332;2022-12-07T02:00:21;52.50;;;19.90;;
65831;SDS011;52593;42.648;23.332;2022-12-07T02:05:25;49.70;;;19.50;;
65831;SDS011;52593;42.648;23.332;2022-12-07T02:07:52;52.53;;;19.50;;
65831;SDS011;52593;42.648;23.332;2022-12-07T02:10:21;47.17;;;19.33;;
65831;SDS011;52593;42.648;23.332;2022-12-07T02:12:50;49.37;;;18.97;;
65831;SDS011;52593;42.648;23.332;2022-12-07T02:15:24;50.15;;;19.88;;
65831;SDS011;52593;42.648;23.332;2022-12-07T02:18:04;44.13;;;17.98;;
65831;SDS011;52593;42.648;23.332;2022-12-07T02:31:53;45.38;;;19.40;;
65831;SDS011;52593;42.648;23.332;2022-12-07T02:34:24;51.38;;;19.88;;
65831;SDS011;52593;42.648;23.332;2022-12-07T02:36:57;51.20;;;19.80;;
65831;SDS011;52593;42.648;23.332;2022-12-07T02:39:44;52.80;;;18.60;;
65831;SDS011;52593;42.648;23.332;2022-12-07T02:42:17;45.67;;;18.75;;
65831;SDS011;52593;42.648;23.332;2022-12-07T02:44:46;49.10;;;19.08;;
65831;SDS011;52593;42.648;23.332;2022-12-07T02:47:13;49.15;;;18.50;;
65831;SDS011;52593;42.648;23.332;2022-12-07T02:49:42;46.78;;;19.33;;
65831;SDS011;52593;42.648;23.332;2022-12-07T02:52:07;48.00;;;19.17;;
65831;SDS011;52593;42.648;23.332;2022-12-07T02:54:33;50.73;;;18.70;;
65831;SDS011;52593;42.648;23.332;2022-12-07T03:13:45;39.50;;;16.83;;
65831;SDS011;52593;42.648;23.332;2022-12-07T03:19:11;44.10;;;17.35;;
65831;SDS011;52593;42.648;23.332;2022-12-07T03:21:40;46.65;;;17.70;;
65831;SDS011;52593;42.648;23.332;2022-12-07T03:24:10;42.50;;;18.95;;
65831;SDS011;52593;42.648;23.332;2022-12-07T03:26:41;45.63;;;17.27;;
65831;SDS011;52593;42.648;23.332;2022-12-07T03:29:13;45.05;;;17.30;;
65831;SDS011;52593;42.648;23.332;2022-12-07T03:31:47;41.33;;;16.85;;
65831;SDS011;52593;42.648;23.332;2022-12-07T03:34:21;38.58;;;16.27;;
65831;SDS011;52593;42.648;23.332;2022-12-07T03:36:51;42.83;;;16.92;;
65831;SDS011;52593;42.648;23.332;2022-12-07T03:39:27;44.73;;;16.93;;
65831;SDS011;52593;42.648;23.332;2022-12-07T03:42:14;42.80;;;16.40;;
65831;SDS011;52593;42.648;23.332;2022-12-07T03:44:41;42.88;;;17.40;;
65831;SDS011;52593;42.648;23.332;2022-12-07T03:47:20;38.15;;;16.30;;
65831;SDS011;52593;42.648;23.332;2022-12-07T03:53:05;40.43;;;15.50;;
65831;SDS011;52593;42.648;23.332;2022-12-07T03:55:52;43.92;;;16.40;;
65831;SDS011;52593;42.648;23.332;2022-12-07T03:58:20;43.08;;;17.15;;
65831;SDS011;52593;42.648;23.332;2022-12-07T04:00:47;38.05;;;15.80;;
65831;SDS011;52593;42.648;23.332;2022-12-07T04:03:15;39.83;;;16.70;;
65831;SDS011;52593;42.648;23.332;2022-12-07T04:05:40;38.00;;;15.83;;
65831;SDS011;52593;42.648;23.332;2022-12-07T04:08:06;40.40;;;16.33;;
65831;SDS011;52593;42.648;23.332;2022-12-07T04:10:32;39.13;;;16.60;;
65831;SDS011;52593;42.648;23.332;2022-12-07T04:12:57;40.37;;;15.73;;
65831;SDS011;52593;42.648;23.332;2022-12-07T04:15:22;43.53;;;16.27;;
65831;SDS011;52593;42.648;23.332;2022-12-07T04:17:48;38.45;;;16.50;;
65831;SDS011;52593;42.648;23.332;2022-12-07T04:20:13;36.50;;;15.20;;
65831;SDS011;52593;42.648;23.332;2022-12-07T04:22:39;43.37;;;15.67;;
65831;SDS011;52593;42.648;23.332;2022-12-07T04:25:04;44.30;;;16.40;;
65831;SDS011;52593;42.648;23.332;2022-12-07T04:27:30;40.77;;;16.00;;
65831;SDS011;52593;42.648;23.332;2022-12-07T04:29:56;44.80;;;16.57;;
65831;SDS011;52593;42.648;23.332;2022-12-07T04:32:21;40.90;;;15.83;;
65831;SDS011;52593;42.648;23.332;2022-12-07T04:34:47;40.28;;;16.42;;
65831;SDS011;52593;42.648;23.332;2022-12-07T04:37:13;40.10;;;16.07;;
65831;SDS011;52593;42.648;23.332;2022-12-07T04:39:38;41.37;;;15.53;;
65831;SDS011;52593;42.648;23.332;2022-12-07T04:42:04;39.90;;;15.88;;
65831;SDS011;52593;42.648;23.332;2022-12-07T04:44:30;45.90;;;16.73;;
65831;SDS011;52593;42.648;23.332;2022-12-07T04:46:55;40.03;;;16.50;;
65831;SDS011;52593;42.648;23.332;2022-12-07T04:49:22;37.80;;;15.70;;
65831;SDS011;52593;42.648;23.332;2022-12-07T04:51:48;42.55;;;17.00;;
65831;SDS011;52593;42.648;23.332;2022-12-07T04:54:14;38.30;;;16.08;;
65831;SDS011;52593;42.648;23.332;2022-12-07T04:56:40;43.83;;;16.77;;
65831;SDS011;52593;42.648;23.332;2022-12-07T04:59:06;40.10;;;15.27;;
65831;SDS011;52593;42.648;23.332;2022-12-07T05:01:32;39.45;;;15.43;;
65831;SDS011;52593;42.648;23.332;2022-12-07T05:03:58;39.60;;;15.30;;
65831;SDS011;52593;42.648;23.332;2022-12-07T05:06:23;41.05;;;15.63;;
65831;SDS011;52593;42.648;23.332;2022-12-07T05:08:49;38.73;;;15.57;;
65831;SDS011;52593;42.648;23.332;2022-12-07T05:11:14;37.27;;;14.70;;
65831;SDS011;52593;42.648;23.332;2022-12-07T05:14:00;43.70;;;15.15;;
65831;SDS011;52593;42.648;23.332;2022-12-07T05:16:27;41.42;;;15.23;;
65831;SDS011;52593;42.648;23.332;2022-12-07T05:18:53;37.67;;;14.07;;
65831;SDS011;52593;42.648;23.332;2022-12-07T05:21:19;37.72;;;14.70;;
65831;SDS011;52593;42.648;23.332;2022-12-07T05:23:44;46.93;;;16.43;;
65831;SDS011;52593;42.648;23.332;2022-12-07T05:26:10;41.05;;;15.98;;
65831;SDS011;52593;42.648;23.332;2022-12-07T05:28:35;47.07;;;16.67;;
65831;SDS011;52593;42.648;23.332;2022-12-07T05:31:01;43.17;;;16.47;;
65831;SDS011;52593;42.648;23.332;2022-12-07T05:33:26;42.17;;;16.63;;
65831;SDS011;52593;42.648;23.332;2022-12-07T05:35:52;40.35;;;15.65;;
65831;SDS011;52593;42.648;23.332;2022-12-07T05:38:17;42.13;;;14.63;;
65831;SDS011;52593;42.648;23.332;2022-12-07T05:40:42;45.03;;;16.60;;
65831;SDS011;52593;42.648;23.332;2022-12-07T05:43:08;40.70;;;16.23;;
65831;SDS011;52593;42.648;23.332;2022-12-07T05:45:33;43.47;;;16.83;;
65831;SDS011;52593;42.648;23.332;2022-12-07T05:47:58;48.97;;;19.67;;
65831;SDS011;52593;42.648;23.332;2022-12-07T05:50:24;45.47;;;16.40;;
65831;SDS011;52593;42.648;23.332;2022-12-07T05:52:49;41.47;;;17.07;;
65831;SDS011;52593;42.648;23.332;2022-12-07T05:55:15;43.63;;;16.63;;
65831;SDS011;52593;42.648;23.332;2022-12-07T05:57:40;48.87;;;19.07;;
65831;SDS011;52593;42.648;23.332;2022-12-07T06:00:26;60.05;;;21.85;;
65831;SDS011;52593;42.648;23.332;2022-12-07T06:02:51;54.73;;;19.00;;
65831;SDS011;52593;42.648;23.332;2022-12-07T06:05:16;47.60;;;17.97;;
65831;SDS011;52593;42.648;23.332;2022-12-07T06:07:42;46.03;;;18.50;;
65831;SDS011;52593;42.648;23.332;2022-12-07T06:10:07;44.67;;;16.57;;
65831;SDS011;52593;42.648;23.332;2022-12-07T06:12:33;44.78;;;17.65;;
65831;SDS011;52593;42.648;23.332;2022-12-07T06:14:58;45.10;;;17.43;;
65831;SDS011;52593;42.648;23.332;2022-12-07T06:17:24;41.07;;;16.97;;
65831;SDS011;52593;42.648;23.332;2022-12-07T06:19:49;46.90;;;17.25;;
65831;SDS011;52593;42.648;23.332;2022-12-07T06:22:15;49.78;;;18.25;;
65831;SDS011;52593;42.648;23.332;2022-12-07T06:24:41;47.87;;;18.43;;
65831;SDS011;52593;42.648;23.332;2022-12-07T06:27:06;51.60;;;20.13;;
65831;SDS011;52593;42.648;23.332;2022-12-07T06:29:32;48.20;;;18.33;;
65831;SDS011;52593;42.648;23.332;2022-12-07T06:31:58;48.95;;;18.65;;
65831;SDS011;52593;42.648;23.332;2022-12-07T06:34:23;54.10;;;21.70;;
65831;SDS011;52593;42.648;23.332;2022-12-07T06:36:50;48.77;;;20.80;;
65831;SDS011;52593;42.648;23.332;2022-12-07T06:39:18;57.65;;;24.08;;
65831;SDS011;52593;42.648;23.332;2022-12-07T06:41:45;55.83;;;24.48;;
65831;SDS011;52593;42.648;23.332;2022-12-07T06:44:11;54.60;;;25.23;;
65831;SDS011;52593;42.648;23.332;2022-12-07T06:46:37;51.23;;;21.70;;
65831;SDS011;52593;42.648;23.332;2022-12-07T06:49:02;55.47;;;18.80;;
65831;SDS011;52593;42.648;23.332;2022-12-07T06:51:29;47.05;;;15.93;;
65831;SDS011;52593;42.648;23.332;2022-12-07T06:53:55;46.85;;;17.48;;
65831;SDS011;52593;42.648;23.332;2022-12-07T06:56:20;50.70;;;19.37;;
65831;SDS011;52593;42.648;23.332;2022-12-07T06:58:46;52.30;;;18.93;;
65831;SDS011;52593;42.648;23.332;2022-12-07T07:01:16;55.67;;;22.77;;
65831;SDS011;52593;42.648;23.332;2022-12-07T07:03:43;49.30;;;19.70;;
65831;SDS011;52593;42.648;23.332;2022-12-07T07:06:09;54.03;;;21.02;;
65831;SDS011;52593;42.648;23.332;2022-12-07T07:08:35;52.00;;;20.37;;
65831;SDS011;52593;42.648;23.332;2022-12-07T07:11:01;43.47;;;17.43;;
65831;SDS011;52593;42.648;23.332;2022-12-07T07:13:27;41.30;;;15.65;;
65831;SDS011;52593;42.648;23.332;2022-12-07T07:15:52;45.27;;;15.40;;
65831;SDS011;52593;42.648;23.332;2022-12-07T07:18:18;48.63;;;15.35;;
65831;SDS011;52593;42.648;23.332;2022-12-07T07:20:43;39.63;;;14.77;;
65831;SDS011;52593;42.648;23.332;2022-12-07T07:23:09;47.87;;;16.50;;
65831;SDS011;52593;42.648;23.332;2022-12-07T07:25:34;45.15;;;17.10;;
65831;SDS011;52593;42.648;23.332;2022-12-07T07:28:00;41.10;;;16.00;;
65831;SDS011;52593;42.648;23.332;2022-12-07T07:30:25;42.27;;;15.87;;
65831;SDS011;52593;42.648;23.332;2022-12-07T07:32:51;62.63;;;20.30;;
65831;SDS011;52593;42.648;23.332;2022-12-07T07:35:16;57.15;;;19.25;;
65831;SDS011;52593;42.648;23.332;2022-12-07T07:37:42;51.50;;;18.40;;
65831;SDS011;52593;42.648;23.332;2022-12-07T07:40:08;62.53;;;20.27;;
65831;SDS011;52593;42.648;23.332;2022-12-07T07:42:34;51.83;;;20.83;;
65831;SDS011;52593;42.648;23.332;2022-12-07T07:44:59;51.57;;;18.20;;
65831;SDS011;52593;42.648;23.332;2022-12-07T07:47:25;49.70;;;17.83;;
65831;SDS011;52593;42.648;23.332;2022-12-07T07:49:50;46.73;;;19.07;;
65831;SDS011;52593;42.648;23.332;2022-12-07T07:52:16;48.73;;;20.07;;
65831;SDS011;52593;42.648;23.332;2022-12-07T07:54:41;47.97;;;17.67;;
65831;SDS011;52593;42.648;23.332;2022-12-07T07:57:07;49.03;;;17.17;;
65831;SDS011;52593;42.648;23.332;2022-12-07T07:59:32;50.38;;;17.77;;
65831;SDS011;52593;42.648;23.332;2022-12-07T08:01:58;50.40;;;18.43;;
65831;SDS011;52593;42.648;23.332;2022-12-07T08:04:23;43.70;;;16.23;;
65831;SDS011;52593;42.648;23.332;2022-12-07T08:06:48;44.92;;;15.77;;
65831;SDS011;52593;42.648;23.332;2022-12-07T08:09:14;45.97;;;15.60;;
65831;SDS011;52593;42.648;23.332;2022-12-07T08:11:39;39.47;;;15.20;;
65831;SDS011;52593;42.648;23.332;2022-12-07T08:14:05;46.20;;;14.77;;
65831;SDS011;52593;42.648;23.332;2022-12-07T08:16:30;59.70;;;29.13;;
65831;SDS011;52593;42.648;23.332;2022-12-07T08:18:55;40.50;;;15.50;;
65831;SDS011;52593;42.648;23.332;2022-12-07T08:21:21;43.70;;;14.87;;
65831;SDS011;52593;42.648;23.332;2022-12-07T08:23:46;38.73;;;14.40;;
65831;SDS011;52593;42.648;23.332;2022-12-07T08:26:13;36.47;;;14.00;;
65831;SDS011;52593;42.648;23.332;2022-12-07T08:28:40;37.95;;;13.60;;
65831;SDS011;52593;42.648;23.332;2022-12-07T08:31:07;36.85;;;13.80;;
65831;SDS011;52593;42.648;23.332;2022-12-07T08:33:35;40.05;;;14.45;;
65831;SDS011;52593;42.648;23.332;2022-12-07T08:36:05;38.67;;;13.73;;
65831;SDS011;52593;42.648;23.332;2022-12-07T08:38:33;35.95;;;14.70;;
65831;SDS011;52593;42.648;23.332;2022-12-07T08:41:00;43.03;;;14.27;;
65831;SDS011;52593;42.648;23.332;2022-12-07T08:43:25;44.53;;;14.87;;
65831;SDS011;52593;42.648;23.332;2022-12-07T08:46:03;36.75;;;15.02;;
65831;SDS011;52593;42.648;23.332;2022-12-07T08:48:40;40.00;;;13.73;;
65831;SDS011;52593;42.648;23.332;2022-12-07T08:51:09;38.85;;;12.95;;
65831;SDS011;52593;42.648;23.332;2022-12-07T08:53:35;41.08;;;15.50;;
65831;SDS011;52593;42.648;23.332;2022-12-07T08:56:03;43.10;;;13.75;;
65831;SDS011;52593;42.648;23.332;2022-12-07T08:58:31;41.42;;;15.32;;
65831;SDS011;52593;42.648;23.332;2022-12-07T09:00:58;39.27;;;13.77;;
65831;SDS011;52593;42.648;23.332;2022-12-07T09:03:23;37.50;;;14.38;;
65831;SDS011;52593;42.648;23.332;2022-12-07T09:05:48;35.47;;;13.00;;
65831;SDS011;52593;42.648;23.332;2022-12-07T09:08:14;34.43;;;13.20;;
65831;SDS011;52593;42.648;23.332;2022-12-07T09:10:40;36.35;;;13.75;;
65831;SDS011;52593;42.648;23.332;2022-12-07T09:13:06;42.30;;;14.50;;
65831;SDS011;52593;42.648;23.332;2022-12-07T09:15:31;36.17;;;14.27;;
65831;SDS011;52593;42.648;23.332;2022-12-07T09:17:56;42.55;;;14.98;;
65831;SDS011;52593;42.648;23.332;2022-12-07T09:20:22;43.43;;;15.37;;
65831;SDS011;52593;42.648;23.332;2022-12-07T09:22:48;38.87;;;14.33;;
65831;SDS011;52593;42.648;23.332;2022-12-07T09:25:13;40.78;;;14.32;;
65831;SDS011;52593;42.648;23.332;2022-12-07T09:27:39;41.33;;;15.60;;
65831;SDS011;52593;42.648;23.332;2022-12-07T09:30:05;34.70;;;13.67;;
65831;SDS011;52593;42.648;23.332;2022-12-07T09:32:31;42.72;;;15.65;;
65831;SDS011;52593;42.648;23.332;2022-12-07T09:34:56;40.73;;;14.83;;
65831;SDS011;52593;42.648;23.332;2022-12-07T09:37:22;42.77;;;15.77;;
65831;SDS011;52593;42.648;23.332;2022-12-07T09:39:47;34.23;;;15.00;;
65831;SDS011;52593;42.648;23.332;2022-12-07T09:42:29;39.20;;;15.25;;
65831;SDS011;52593;42.648;23.332;2022-12-07T09:44:59;40.07;;;15.30;;
65831;SDS011;52593;42.648;23.332;2022-12-07T09:47:25;42.78;;;15.90;;
65831;SDS011;52593;42.648;23.332;2022-12-07T09:50:00;51.08;;;15.93;;
65831;SDS011;52593;42.648;23.332;2022-12-07T09:52:30;41.47;;;15.88;;
65831;SDS011;52593;42.648;23.332;2022-12-07T09:54:57;48.63;;;17.10;;
65831;SDS011;52593;42.648;23.332;2022-12-07T09:57:28;42.13;;;17.13;;
65831;SDS011;52593;42.648;23.332;2022-12-07T09:59:57;37.53;;;15.70;;
65831;SDS011;52593;42.648;23.332;2022-12-07T10:02:37;40.65;;;15.50;;
65831;SDS011;52593;42.648;23.332;2022-12-07T10:05:07;34.53;;;13.93;;
65831;SDS011;52593;42.648;23.332;2022-12-07T10:07:38;42.85;;;14.35;;
65831;SDS011;52593;42.648;23.332;2022-12-07T10:10:04;32.80;;;12.67;;
65831;SDS011;52593;42.648;23.332;2022-12-07T10:13:38;49.45;;;15.43;;
65831;SDS011;52593;42.648;23.332;2022-12-07T10:18:30;40.90;;;15.25;;
65831;SDS011;52593;42.648;23.332;2022-12-07T10:21:18;37.75;;;15.13;;
65831;SDS011;52593;42.648;23.332;2022-12-07T10:24:02;35.93;;;13.53;;
65831;SDS011;52593;42.648;23.332;2022-12-07T10:28:58;35.83;;;14.07;;
65831;SDS011;52593;42.648;23.332;2022-12-07T10:31:25;33.45;;;13.35;;
65831;SDS011;52593;42.648;23.332;2022-12-07T10:33:58;39.70;;;14.43;;
65831;SDS011;52593;42.648;23.332;2022-12-07T10:36:27;37.20;;;14.60;;
65831;SDS011;52593;42.648;23.332;2022-12-07T10:39:44;38.30;;;15.23;;
65831;SDS011;52593;42.648;23.332;2022-12-07T10:44:21;43.65;;;15.82;;
65831;SDS011;52593;42.648;23.332;2022-12-07T11:00:18;36.63;;;13.25;;
65831;SDS011;52593;42.648;23.332;2022-12-07T11:08:38;36.45;;;13.18;;
65831;SDS011;52593;42.648;23.332;2022-12-07T11:17:06;35.97;;;12.18;;
65831;SDS011;52593;42.648;23.332;2022-12-07T11:19:47;33.03;;;12.60;;
65831;SDS011;52593;42.648;23.332;2022-12-07T11:27:51;29.77;;;12.10;;
65831;SDS011;52593;42.648;23.332;2022-12-07T11:33:47;31.50;;;11.83;;
65831;SDS011;52593;42.648;23.332;2022-12-07T11:38:54;30.08;;;11.65;;
65831;SDS011;52593;42.648;23.332;2022-12-07T11:41:25;28.45;;;11.07;;
65831;SDS011;52593;42.648;23.332;2022-12-07T11:44:08;32.78;;;11.60;;
65831;SDS011;52593;42.648;23.332;2022-12-07T11:47:40;42.17;;;12.23;;
65831;SDS011;52593;42.648;23.332;2022-12-07T11:50:05;33.65;;;10.88;;
65831;SDS011;52593;42.648;23.332;2022-12-07T11:53:00;31.70;;;11.45;;
65831;SDS011;52593;42.648;23.332;2022-12-07T12:00:49;30.13;;;10.83;;
65831;SDS011;52593;42.648;23.332;2022-12-07T12:03:27;32.05;;;12.20;;
65831;SDS011;52593;42.648;23.332;2022-12-07T12:05:58;27.75;;;12.27;;
65831;SDS011;52593;42.648;23.332;2022-12-07T12:08:27;26.57;;;10.60;;
65831;SDS011;52593;42.648;23.332;2022-12-07T12:21:32;30.15;;;11.02;;
65831;SDS011;52593;42.648;23.332;2022-12-07T12:24:00;26.75;;;10.45;;
65831;SDS011;52593;42.648;23.332;2022-12-07T12:26:40;26.73;;;10.20;;
65831;SDS011;52593;42.648;23.332;2022-12-07T12:29:21;26.05;;;10.65;;
65831;SDS011;52593;42.648;23.332;2022-12-07T12:40:37;29.60;;;11.95;;
65831;SDS011;52593;42.648;23.332;2022-12-07T12:42:57;33.60;;;12.00;;
65831;SDS011;52593;42.648;23.332;2022-12-07T12:45:26;36.50;;;14.33;;
65831;SDS011;52593;42.648;23.332;2022-12-07T12:50:27;27.75;;;11.32;;
65831;SDS011;52593;42.648;23.332;2022-12-07T13:01:33;30.10;;;12.13;;
65831;SDS011;52593;42.648;23.332;2022-12-07T13:03:51;35.05;;;12.02;;
65831;SDS011;52593;42.648;23.332;2022-12-07T13:08:49;30.05;;;10.68;;
65831;SDS011;52593;42.648;23.332;2022-12-07T13:11:17;29.17;;;10.45;;
65831;SDS011;52593;42.648;23.332;2022-12-07T13:13:43;25.17;;;10.57;;
65831;SDS011;52593;42.648;23.332;2022-12-07T13:26:18;29.60;;;13.03;;
65831;SDS011;52593;42.648;23.332;2022-12-07T13:34:31;23.95;;;9.88;;
65831;SDS011;52593;42.648;23.332;2022-12-07T13:37:02;20.83;;;8.77;;
65831;SDS011;52593;42.648;23.332;2022-12-07T13:39:44;20.37;;;8.90;;
65831;SDS011;52593;42.648;23.332;2022-12-07T13:42:28;23.10;;;8.73;;
65831;SDS011;52593;42.648;23.332;2022-12-07T13:44:58;24.50;;;9.38;;
65831;SDS011;52593;42.648;23.332;2022-12-07T13:49:52;28.07;;;9.80;;
65831;SDS011;52593;42.648;23.332;2022-12-07T13:54:57;27.00;;;9.90;;
65831;SDS011;52593;42.648;23.332;2022-12-07T13:57:29;24.17;;;10.05;;
65831;SDS011;52593;42.648;23.332;2022-12-07T13:59:58;26.60;;;9.70;;
65831;SDS011;52593;42.648;23.332;2022-12-07T14:02:27;28.52;;;10.40;;
65831;SDS011;52593;42.648;23.332;2022-12-07T14:12:56;25.02;;;9.82;;
65831;SDS011;52593;42.648;23.332;2022-12-07T14:15:23;30.45;;;10.65;;
65831;SDS011;52593;42.648;23.332;2022-12-07T14:17:53;26.00;;;9.40;;
65831;SDS011;52593;42.648;23.332;2022-12-07T14:22:55;23.73;;;8.85;;
65831;SDS011;52593;42.648;23.332;2022-12-07T14:25:22;28.33;;;9.63;;
65831;SDS011;52593;42.648;23.332;2022-12-07T14:30:34;20.63;;;9.47;;
65831;SDS011;52593;42.648;23.332;2022-12-07T14:33:00;32.17;;;10.35;;
65831;SDS011;52593;42.648;23.332;2022-12-07T14:35:27;33.05;;;9.50;;
65831;SDS011;52593;42.648;23.332;2022-12-07T14:37:53;29.88;;;9.90;;
65831;SDS011;52593;42.648;23.332;2022-12-07T14:40:23;26.73;;;9.70;;
65831;SDS011;52593;42.648;23.332;2022-12-07T14:42:50;28.92;;;10.45;;
65831;SDS011;52593;42.648;23.332;2022-12-07T14:45:20;30.55;;;10.52;;
65831;SDS011;52593;42.648;23.332;2022-12-07T14:47:47;40.60;;;12.50;;
65831;SDS011;52593;42.648;23.332;2022-12-07T14:50:13;41.47;;;12.48;;
65831;SDS011;52593;42.648;23.332;2022-12-07T14:52:40;29.00;;;9.87;;
65831;SDS011;52593;42.648;23.332;2022-12-07T14:55:12;27.20;;;10.85;;
65831;SDS011;52593;42.648;23.332;2022-12-07T14:57:47;28.90;;;11.25;;
65831;SDS011;52593;42.648;23.332;2022-12-07T15:00:13;33.27;;;11.13;;
65831;SDS011;52593;42.648;23.332;2022-12-07T15:02:40;40.38;;;12.07;;
65831;SDS011;52593;42.648;23.332;2022-12-07T15:05:05;34.60;;;11.10;;
65831;SDS011;52593;42.648;23.332;2022-12-07T15:07:31;36.35;;;12.20;;
65831;SDS011;52593;42.648;23.332;2022-12-07T15:09:56;40.40;;;12.07;;
65831;SDS011;52593;42.648;23.332;2022-12-07T15:12:21;39.53;;;13.50;;
65831;SDS011;52593;42.648;23.332;2022-12-07T15:14:48;41.20;;;13.98;;
65831;SDS011;52593;42.648;23.332;2022-12-07T15:17:13;39.33;;;14.07;;
65831;SDS011;52593;42.648;23.332;2022-12-07T15:19:39;41.60;;;13.63;;
65831;SDS011;52593;42.648;23.332;2022-12-07T15:22:04;39.90;;;13.77;;
65831;SDS011;52593;42.648;23.332;2022-12-07T15:24:29;39.42;;;13.30;;
65831;SDS011;52593;42.648;23.332;2022-12-07T15:26:55;54.43;;;14.27;;
65831;SDS011;52593;42.648;23.332;2022-12-07T15:29:20;39.67;;;12.83;;
65831;SDS011;52593;42.648;23.332;2022-12-07T15:31:47;38.88;;;12.73;;
65831;SDS011;52593;42.648;23.332;2022-12-07T15:34:13;35.13;;;12.10;;
65831;SDS011;52593;42.648;23.332;2022-12-07T15:36:39;35.95;;;13.57;;
65831;SDS011;52593;42.648;23.332;2022-12-07T15:39:04;46.20;;;17.80;;
65831;SDS011;52593;42.648;23.332;2022-12-07T15:41:30;41.67;;;14.77;;
65831;SDS011;52593;42.648;23.332;2022-12-07T15:43:55;44.03;;;14.93;;
65831;SDS011;52593;42.648;23.332;2022-12-07T15:46:39;45.15;;;16.75;;
65831;SDS011;52593;42.648;23.332;2022-12-07T15:49:09;43.83;;;17.40;;
65831;SDS011;52593;42.648;23.332;2022-12-07T15:51:37;44.65;;;16.30;;
65831;SDS011;52593;42.648;23.332;2022-12-07T15:54:02;44.07;;;15.43;;
65831;SDS011;52593;42.648;23.332;2022-12-07T15:56:27;38.50;;;15.67;;
65831;SDS011;52593;42.648;23.332;2022-12-07T15:58:53;39.67;;;17.20;;
65831;SDS011;52593;42.648;23.332;2022-12-07T16:01:18;40.03;;;16.87;;
65831;SDS011;52593;42.648;23.332;2022-12-07T16:03:45;45.30;;;17.15;;
65831;SDS011;52593;42.648;23.332;2022-12-07T16:06:15;44.43;;;18.63;;
65831;SDS011;52593;42.648;23.332;2022-12-07T16:08:45;46.83;;;18.67;;
65831;SDS011;52593;42.648;23.332;2022-12-07T16:11:11;43.95;;;18.75;;
65831;SDS011;52593;42.648;23.332;2022-12-07T16:13:37;45.92;;;18.10;;
65831;SDS011;52593;42.648;23.332;2022-12-07T16:16:08;49.20;;;19.27;;
65831;SDS011;52593;42.648;23.332;2022-12-07T16:18:36;43.03;;;19.00;;
65831;SDS011;52593;42.648;23.332;2022-12-07T16:21:02;45.60;;;19.15;;
65831;SDS011;52593;42.648;23.332;2022-12-07T16:23:28;45.00;;;19.50;;
65831;SDS011;52593;42.648;23.332;2022-12-07T16:25:53;49.67;;;17.38;;
65831;SDS011;52593;42.648;23.332;2022-12-07T16:28:19;43.70;;;18.00;;
65831;SDS011;52593;42.648;23.332;2022-12-07T16:30:44;41.20;;;16.77;;
65831;SDS011;52593;42.648;23.332;2022-12-07T16:33:10;42.50;;;18.40;;
65831;SDS011;52593;42.648;23.332;2022-12-07T16:35:38;39.67;;;17.17;;
65831;SDS011;52593;42.648;23.332;2022-12-07T16:38:06;44.13;;;17.30;;
65831;SDS011;52593;42.648;23.332;2022-12-07T16:40:31;38.72;;;16.60;;
65831;SDS011;52593;42.648;23.332;2022-12-07T16:42:57;38.97;;;16.53;;
65831;SDS011;52593;42.648;23.332;2022-12-07T16:45:22;47.87;;;17.37;;
65831;SDS011;52593;42.648;23.332;2022-12-07T16:47:48;37.97;;;16.00;;
65831;SDS011;52593;42.648;23.332;2022-12-07T16:50:16;59.10;;;22.55;;